Weather at Sevastopol International Airport / Belbek Air Base

Public forecast

Using degrees Celsius for public forecast. Weather courtesy of forecast.io.

Closest aviation weather report (METAR) to Sevastopol International Airport / Belbek Air Base

Closest report is Anapa Vityazevo Airport, 161.7 nm (299.4 km) E.

2024/05/25 12:00 (retrieved 10 minutes ago)

URKA 251200Z 10014G19MPS CAVOK 22/10 Q1013 R03/010070 NOSIG RMK QFE756/1008

Closest aviation forecast (TAF) to Sevastopol International Airport / Belbek Air Base

Closest forecast is Anapa Vityazevo Airport, 161.7 nm (299.4 km) E.

2024/05/25 12:21 (retrieved 0 seconds ago)

TAF TAF URKA 251047Z 2512/2612 08012G21MPS 9999 SCT030 TEMPO 2512/2515 09017G25MPS BECMG 2518/2520 07010G16MPS SCT020CB TEMPO 2520/2609 10007G14MPS 6000 -SHRA BKN020CB TEMPO 2609/2612 21003G08MPS SCT016CB